sensor_id;sensor_type;location;lat;lon;timestamp;P1;durP1;ratioP1;P2;durP2;ratioP2
27424;SDS011;15244;49.088;11.886;2023-04-03T00:05:22;2.60;;;2.40;;
27424;SDS011;15244;49.088;11.886;2023-04-03T00:10:37;2.20;;;2.10;;
27424;SDS011;15244;49.088;11.886;2023-04-03T00:16:09;2.53;;;2.33;;
27424;SDS011;15244;49.088;11.886;2023-04-03T00:21:24;2.70;;;2.60;;
27424;SDS011;15244;49.088;11.886;2023-04-03T00:26:55;2.67;;;2.50;;
27424;SDS011;15244;49.088;11.886;2023-04-03T00:32:10;2.70;;;2.50;;
27424;SDS011;15244;49.088;11.886;2023-04-03T00:37:39;2.53;;;2.33;;
27424;SDS011;15244;49.088;11.886;2023-04-03T00:42:56;2.80;;;2.70;;
27424;SDS011;15244;49.088;11.886;2023-04-03T00:48:37;2.33;;;2.22;;
27424;SDS011;15244;49.088;11.886;2023-04-03T00:54:00;2.75;;;2.65;;
27424;SDS011;15244;49.088;11.886;2023-04-03T00:59:34;2.72;;;2.63;;
27424;SDS011;15244;49.088;11.886;2023-04-03T01:04:53;2.58;;;2.47;;
27424;SDS011;15244;49.088;11.886;2023-04-03T01:10:22;2.78;;;2.58;;
27424;SDS011;15244;49.088;11.886;2023-04-03T01:15:39;2.50;;;2.38;;
27424;SDS011;15244;49.088;11.886;2023-04-03T01:21:19;2.50;;;2.40;;
27424;SDS011;15244;49.088;11.886;2023-04-03T01:26:39;3.50;;;2.75;;
27424;SDS011;15244;49.088;11.886;2023-04-03T01:32:09;3.03;;;2.50;;
27424;SDS011;15244;49.088;11.886;2023-04-03T01:37:25;3.42;;;2.20;;
27424;SDS011;15244;49.088;11.886;2023-04-03T01:42:54;3.30;;;2.45;;
27424;SDS011;15244;49.088;11.886;2023-04-03T01:48:09;2.53;;;2.30;;
27424;SDS011;15244;49.088;11.886;2023-04-03T01:53:38;2.55;;;2.08;;
27424;SDS011;15244;49.088;11.886;2023-04-03T01:58:53;3.13;;;2.83;;
27424;SDS011;15244;49.088;11.886;2023-04-03T02:04:22;3.47;;;2.88;;
27424;SDS011;15244;49.088;11.886;2023-04-03T02:09:40;2.53;;;2.33;;
27424;SDS011;15244;49.088;11.886;2023-04-03T02:15:09;2.50;;;2.30;;
27424;SDS011;15244;49.088;11.886;2023-04-03T02:20:30;3.60;;;2.60;;
27424;SDS011;15244;49.088;11.886;2023-04-03T02:26:05;2.65;;;2.30;;
27424;SDS011;15244;49.088;11.886;2023-04-03T02:31:22;2.70;;;2.50;;
27424;SDS011;15244;49.088;11.886;2023-04-03T02:36:51;4.35;;;2.50;;
27424;SDS011;15244;49.088;11.886;2023-04-03T02:42:06;2.83;;;2.60;;
27424;SDS011;15244;49.088;11.886;2023-04-03T02:47:35;2.80;;;2.60;;
27424;SDS011;15244;49.088;11.886;2023-04-03T02:52:50;2.88;;;2.60;;
27424;SDS011;15244;49.088;11.886;2023-04-03T02:58:19;2.80;;;2.58;;
27424;SDS011;15244;49.088;11.886;2023-04-03T03:03:36;2.55;;;2.35;;
27424;SDS011;15244;49.088;11.886;2023-04-03T03:09:07;3.28;;;2.60;;
27424;SDS011;15244;49.088;11.886;2023-04-03T03:14:23;2.55;;;2.40;;
27424;SDS011;15244;49.088;11.886;2023-04-03T03:19:52;3.20;;;2.42;;
27424;SDS011;15244;49.088;11.886;2023-04-03T03:25:10;3.08;;;2.50;;
27424;SDS011;15244;49.088;11.886;2023-04-03T03:30:39;3.42;;;2.42;;
27424;SDS011;15244;49.088;11.886;2023-04-03T03:35:56;3.65;;;2.50;;
27424;SDS011;15244;49.088;11.886;2023-04-03T03:41:26;2.47;;;2.38;;
27424;SDS011;15244;49.088;11.886;2023-04-03T03:46:42;3.78;;;2.72;;
27424;SDS011;15244;49.088;11.886;2023-04-03T03:52:13;2.58;;;2.42;;
27424;SDS011;15244;49.088;11.886;2023-04-03T03:57:28;2.72;;;2.50;;
27424;SDS011;15244;49.088;11.886;2023-04-03T04:02:57;2.97;;;2.60;;
27424;SDS011;15244;49.088;11.886;2023-04-03T04:08:14;2.95;;;2.55;;
27424;SDS011;15244;49.088;11.886;2023-04-03T04:13:46;3.03;;;2.75;;
27424;SDS011;15244;49.088;11.886;2023-04-03T04:19:03;7.40;;;2.35;;
27424;SDS011;15244;49.088;11.886;2023-04-03T04:24:33;2.90;;;2.60;;
27424;SDS011;15244;49.088;11.886;2023-04-03T04:29:50;2.35;;;2.25;;
27424;SDS011;15244;49.088;11.886;2023-04-03T04:35:20;3.20;;;2.45;;
27424;SDS011;15244;49.088;11.886;2023-04-03T04:40:36;7.53;;;3.17;;
27424;SDS011;15244;49.088;11.886;2023-04-03T04:46:07;4.15;;;2.50;;
27424;SDS011;15244;49.088;11.886;2023-04-03T04:51:29;2.70;;;2.50;;
27424;SDS011;15244;49.088;11.886;2023-04-03T04:57:09;4.18;;;2.30;;
27424;SDS011;15244;49.088;11.886;2023-04-03T05:02:25;3.20;;;2.63;;
27424;SDS011;15244;49.088;11.886;2023-04-03T05:07:58;3.08;;;2.22;;
27424;SDS011;15244;49.088;11.886;2023-04-03T05:13:16;2.65;;;2.45;;
27424;SDS011;15244;49.088;11.886;2023-04-03T05:18:45;3.00;;;2.42;;
27424;SDS011;15244;49.088;11.886;2023-04-03T05:24:01;2.28;;;2.17;;
27424;SDS011;15244;49.088;11.886;2023-04-03T05:29:30;3.13;;;2.92;;
27424;SDS011;15244;49.088;11.886;2023-04-03T05:34:48;2.63;;;2.40;;
27424;SDS011;15244;49.088;11.886;2023-04-03T05:40:19;4.75;;;2.50;;
27424;SDS011;15244;49.088;11.886;2023-04-03T05:45:35;3.13;;;2.35;;
27424;SDS011;15244;49.088;11.886;2023-04-03T05:51:09;2.80;;;2.60;;
27424;SDS011;15244;49.088;11.886;2023-04-03T05:56:51;3.03;;;2.60;;
27424;SDS011;15244;49.088;11.886;2023-04-03T06:02:10;3.08;;;2.60;;
27424;SDS011;15244;49.088;11.886;2023-04-03T06:07:43;4.45;;;2.97;;
27424;SDS011;15244;49.088;11.886;2023-04-03T06:13:00;6.13;;;3.22;;
27424;SDS011;15244;49.088;11.886;2023-04-03T06:18:31;6.25;;;3.00;;
27424;SDS011;15244;49.088;11.886;2023-04-03T06:23:52;2.33;;;2.23;;
27424;SDS011;15244;49.088;11.886;2023-04-03T06:29:21;3.95;;;3.25;;
27424;SDS011;15244;49.088;11.886;2023-04-03T06:34:36;3.92;;;2.88;;
27424;SDS011;15244;49.088;11.886;2023-04-03T06:40:09;5.07;;;2.88;;
27424;SDS011;15244;49.088;11.886;2023-04-03T06:45:33;7.47;;;3.78;;
27424;SDS011;15244;49.088;11.886;2023-04-03T06:51:03;3.13;;;2.92;;
27424;SDS011;15244;49.088;11.886;2023-04-03T06:56:32;3.97;;;3.22;;
27424;SDS011;15244;49.088;11.886;2023-04-03T07:01:47;7.70;;;3.95;;
27424;SDS011;15244;49.088;11.886;2023-04-03T07:07:16;3.67;;;3.38;;
27424;SDS011;15244;49.088;11.886;2023-04-03T07:12:32;4.38;;;3.70;;
27424;SDS011;15244;49.088;11.886;2023-04-03T07:18:01;5.15;;;3.42;;
27424;SDS011;15244;49.088;11.886;2023-04-03T07:23:16;3.80;;;3.50;;
27424;SDS011;15244;49.088;11.886;2023-04-03T07:28:45;6.50;;;3.95;;
27424;SDS011;15244;49.088;11.886;2023-04-03T07:34:03;4.53;;;3.83;;
27424;SDS011;15244;49.088;11.886;2023-04-03T07:39:32;5.60;;;3.40;;
27424;SDS011;15244;49.088;11.886;2023-04-03T07:44:47;3.60;;;2.97;;
27424;SDS011;15244;49.088;11.886;2023-04-03T07:50:16;4.53;;;2.65;;
27424;SDS011;15244;49.088;11.886;2023-04-03T07:55:46;5.50;;;3.70;;
27424;SDS011;15244;49.088;11.886;2023-04-03T08:01:01;9.57;;;3.63;;
27424;SDS011;15244;49.088;11.886;2023-04-03T08:06:33;4.43;;;3.15;;
27424;SDS011;15244;49.088;11.886;2023-04-03T08:11:55;3.65;;;2.67;;
27424;SDS011;15244;49.088;11.886;2023-04-03T08:17:27;3.42;;;2.55;;
27424;SDS011;15244;49.088;11.886;2023-04-03T08:22:44;3.78;;;2.97;;
27424;SDS011;15244;49.088;11.886;2023-04-03T08:28:14;4.05;;;2.40;;
27424;SDS011;15244;49.088;11.886;2023-04-03T08:33:29;3.22;;;2.22;;
27424;SDS011;15244;49.088;11.886;2023-04-03T08:38:58;1.63;;;1.50;;
27424;SDS011;15244;49.088;11.886;2023-04-03T08:44:18;1.95;;;1.83;;
27424;SDS011;15244;49.088;11.886;2023-04-03T08:50:00;2.75;;;1.60;;
27424;SDS011;15244;49.088;11.886;2023-04-03T08:55:33;2.72;;;2.05;;
27424;SDS011;15244;49.088;11.886;2023-04-03T09:00:55;11.93;;;1.92;;
27424;SDS011;15244;49.088;11.886;2023-04-03T09:06:29;2.25;;;1.20;;
27424;SDS011;15244;49.088;11.886;2023-04-03T09:11:52;1.95;;;1.20;;
27424;SDS011;15244;49.088;11.886;2023-04-03T09:22:58;2.42;;;1.17;;
27424;SDS011;15244;49.088;11.886;2023-04-03T09:28:29;1.60;;;1.40;;
27424;SDS011;15244;49.088;11.886;2023-04-03T09:34:02;1.40;;;1.10;;
27424;SDS011;15244;49.088;11.886;2023-04-03T09:39:48;2.13;;;1.30;;
27424;SDS011;15244;49.088;11.886;2023-04-03T09:45:21;2.35;;;1.40;;
27424;SDS011;15244;49.088;11.886;2023-04-03T09:50:55;2.60;;;1.48;;
27424;SDS011;15244;49.088;11.886;2023-04-03T09:56:27;1.80;;;1.33;;
27424;SDS011;15244;49.088;11.886;2023-04-03T10:01:56;2.22;;;1.30;;
27424;SDS011;15244;49.088;11.886;2023-04-03T10:07:36;1.88;;;1.15;;
27424;SDS011;15244;49.088;11.886;2023-04-03T10:13:10;1.60;;;1.00;;
27424;SDS011;15244;49.088;11.886;2023-04-03T10:58:53;1.92;;;1.27;;
27424;SDS011;15244;49.088;11.886;2023-04-03T11:04:29;0.70;;;0.70;;
27424;SDS011;15244;49.088;11.886;2023-04-03T11:09:56;2.13;;;1.42;;
27424;SDS011;15244;49.088;11.886;2023-04-03T11:15:32;2.78;;;1.20;;
27424;SDS011;15244;49.088;11.886;2023-04-03T11:20:59;2.47;;;1.25;;
27424;SDS011;15244;49.088;11.886;2023-04-03T11:26:37;1.73;;;1.30;;
27424;SDS011;15244;49.088;11.886;2023-04-03T11:37:39;1.70;;;1.17;;
27424;SDS011;15244;49.088;11.886;2023-04-03T11:53:48;2.30;;;0.80;;
27424;SDS011;15244;49.088;11.886;2023-04-03T11:59:21;1.77;;;1.33;;
27424;SDS011;15244;49.088;11.886;2023-04-03T12:04:38;2.13;;;1.30;;
27424;SDS011;15244;49.088;11.886;2023-04-03T12:10:14;0.75;;;0.70;;
27424;SDS011;15244;49.088;11.886;2023-04-03T12:21:13;0.73;;;0.68;;
27424;SDS011;15244;49.088;11.886;2023-04-03T12:49:22;0.77;;;0.77;;
27424;SDS011;15244;49.088;11.886;2023-04-03T12:54:53;1.58;;;1.33;;
27424;SDS011;15244;49.088;11.886;2023-04-03T13:00:20;2.55;;;1.08;;
27424;SDS011;15244;49.088;11.886;2023-04-03T13:06:03;1.48;;;0.80;;
27424;SDS011;15244;49.088;11.886;2023-04-03T13:11:18;2.35;;;1.35;;
27424;SDS011;15244;49.088;11.886;2023-04-03T13:16:53;1.30;;;1.02;;
27424;SDS011;15244;49.088;11.886;2023-04-03T13:22:25;2.55;;;0.98;;
27424;SDS011;15244;49.088;11.886;2023-04-03T13:28:01;0.80;;;0.80;;
27424;SDS011;15244;49.088;11.886;2023-04-03T13:33:23;3.13;;;0.80;;
27424;SDS011;15244;49.088;11.886;2023-04-03T13:39:38;1.20;;;0.70;;
27424;SDS011;15244;49.088;11.886;2023-04-03T13:44:36;1.80;;;1.00;;
27424;SDS011;15244;49.088;11.886;2023-04-03T13:55:28;2.35;;;0.80;;
27424;SDS011;15244;49.088;11.886;2023-04-03T14:06:25;3.33;;;1.08;;
27424;SDS011;15244;49.088;11.886;2023-04-03T14:11:58;1.13;;;1.00;;
27424;SDS011;15244;49.088;11.886;2023-04-03T14:17:37;1.65;;;0.93;;
27424;SDS011;15244;49.088;11.886;2023-04-03T14:23:06;1.63;;;0.80;;
27424;SDS011;15244;49.088;11.886;2023-04-03T14:28:21;1.08;;;0.70;;
27424;SDS011;15244;49.088;11.886;2023-04-03T14:33:52;1.50;;;0.90;;
27424;SDS011;15244;49.088;11.886;2023-04-03T14:39:07;1.20;;;1.10;;
27424;SDS011;15244;49.088;11.886;2023-04-03T14:44:43;1.08;;;1.00;;
27424;SDS011;15244;49.088;11.886;2023-04-03T14:50:01;1.45;;;0.90;;
27424;SDS011;15244;49.088;11.886;2023-04-03T14:55:46;1.75;;;0.95;;
27424;SDS011;15244;49.088;11.886;2023-04-03T15:01:15;2.45;;;1.10;;
27424;SDS011;15244;49.088;11.886;2023-04-03T15:06:33;1.50;;;1.27;;
27424;SDS011;15244;49.088;11.886;2023-04-03T15:12:02;3.25;;;1.17;;
27424;SDS011;15244;49.088;11.886;2023-04-03T15:17:18;2.15;;;1.10;;
27424;SDS011;15244;49.088;11.886;2023-04-03T15:22:50;2.55;;;1.10;;
27424;SDS011;15244;49.088;11.886;2023-04-03T15:28:05;1.00;;;0.90;;
27424;SDS011;15244;49.088;11.886;2023-04-03T15:33:42;1.10;;;1.00;;
27424;SDS011;15244;49.088;11.886;2023-04-03T15:38:57;1.00;;;0.90;;
27424;SDS011;15244;49.088;11.886;2023-04-03T15:44:26;2.40;;;1.40;;
27424;SDS011;15244;49.088;11.886;2023-04-03T15:49:43;1.20;;;1.02;;
27424;SDS011;15244;49.088;11.886;2023-04-03T15:55:12;2.60;;;1.00;;
27424;SDS011;15244;49.088;11.886;2023-04-03T16:00:27;1.38;;;0.90;;
27424;SDS011;15244;49.088;11.886;2023-04-03T16:05:57;1.02;;;0.93;;
27424;SDS011;15244;49.088;11.886;2023-04-03T16:11:12;1.95;;;1.40;;
27424;SDS011;15244;49.088;11.886;2023-04-03T16:16:41;1.70;;;1.00;;
27424;SDS011;15244;49.088;11.886;2023-04-03T16:21:56;1.48;;;1.15;;
27424;SDS011;15244;49.088;11.886;2023-04-03T16:27:26;1.20;;;1.10;;
27424;SDS011;15244;49.088;11.886;2023-04-03T16:32:43;2.78;;;1.45;;
27424;SDS011;15244;49.088;11.886;2023-04-03T16:38:13;2.00;;;1.33;;
27424;SDS011;15244;49.088;11.886;2023-04-03T16:43:30;2.22;;;1.40;;
27424;SDS011;15244;49.088;11.886;2023-04-03T16:48:59;1.30;;;1.20;;
27424;SDS011;15244;49.088;11.886;2023-04-03T16:54:14;1.42;;;1.13;;
27424;SDS011;15244;49.088;11.886;2023-04-03T16:59:43;2.22;;;1.15;;
27424;SDS011;15244;49.088;11.886;2023-04-03T17:04:58;1.48;;;1.38;;
27424;SDS011;15244;49.088;11.886;2023-04-03T17:10:41;1.70;;;1.30;;
27424;SDS011;15244;49.088;11.886;2023-04-03T17:15:58;1.83;;;1.58;;
27424;SDS011;15244;49.088;11.886;2023-04-03T17:21:27;1.50;;;1.35;;
27424;SDS011;15244;49.088;11.886;2023-04-03T17:26:42;1.63;;;1.27;;
27424;SDS011;15244;49.088;11.886;2023-04-03T17:32:11;1.80;;;1.67;;
27424;SDS011;15244;49.088;11.886;2023-04-03T17:37:26;1.63;;;1.30;;
27424;SDS011;15244;49.088;11.886;2023-04-03T17:42:55;3.38;;;1.65;;
27424;SDS011;15244;49.088;11.886;2023-04-03T17:48:10;1.38;;;1.27;;
27424;SDS011;15244;49.088;11.886;2023-04-03T17:53:39;2.03;;;1.10;;
27424;SDS011;15244;49.088;11.886;2023-04-03T17:58:56;1.38;;;1.23;;
27424;SDS011;15244;49.088;11.886;2023-04-03T18:04:25;1.50;;;1.40;;
27424;SDS011;15244;49.088;11.886;2023-04-03T18:09:41;1.60;;;1.50;;
27424;SDS011;15244;49.088;11.886;2023-04-03T18:15:12;3.88;;;1.55;;
27424;SDS011;15244;49.088;11.886;2023-04-03T18:20:27;1.38;;;1.38;;
27424;SDS011;15244;49.088;11.886;2023-04-03T18:25:58;2.53;;;1.80;;
27424;SDS011;15244;49.088;11.886;2023-04-03T18:31:18;3.10;;;1.42;;
27424;SDS011;15244;49.088;11.886;2023-04-03T18:36:48;4.30;;;2.13;;
27424;SDS011;15244;49.088;11.886;2023-04-03T18:42:04;2.63;;;1.92;;
27424;SDS011;15244;49.088;11.886;2023-04-03T18:47:37;1.70;;;1.52;;
27424;SDS011;15244;49.088;11.886;2023-04-03T18:52:59;2.00;;;1.60;;
27424;SDS011;15244;49.088;11.886;2023-04-03T18:58:28;2.05;;;1.88;;
27424;SDS011;15244;49.088;11.886;2023-04-03T19:03:43;1.80;;;1.70;;
27424;SDS011;15244;49.088;11.886;2023-04-03T19:09:14;4.38;;;1.85;;
27424;SDS011;15244;49.088;11.886;2023-04-03T19:14:31;3.83;;;1.90;;
27424;SDS011;15244;49.088;11.886;2023-04-03T19:20:01;2.00;;;1.90;;
27424;SDS011;15244;49.088;11.886;2023-04-03T19:25:19;2.95;;;1.63;;
27424;SDS011;15244;49.088;11.886;2023-04-03T19:30:48;2.95;;;2.38;;
27424;SDS011;15244;49.088;11.886;2023-04-03T19:36:06;2.35;;;2.00;;
27424;SDS011;15244;49.088;11.886;2023-04-03T19:41:36;2.35;;;1.73;;
27424;SDS011;15244;49.088;11.886;2023-04-03T19:46:55;2.88;;;2.58;;
27424;SDS011;15244;49.088;11.886;2023-04-03T19:52:26;2.53;;;1.80;;
27424;SDS011;15244;49.088;11.886;2023-04-03T19:57:41;3.78;;;1.50;;
27424;SDS011;15244;49.088;11.886;2023-04-03T20:03:10;2.60;;;2.40;;
27424;SDS011;15244;49.088;11.886;2023-04-03T20:08:25;1.80;;;1.70;;
27424;SDS011;15244;49.088;11.886;2023-04-03T20:13:57;2.78;;;2.42;;
27424;SDS011;15244;49.088;11.886;2023-04-03T20:19:12;5.45;;;3.00;;
27424;SDS011;15244;49.088;11.886;2023-04-03T20:24:41;4.95;;;3.20;;
27424;SDS011;15244;49.088;11.886;2023-04-03T20:29:56;4.03;;;2.83;;
27424;SDS011;15244;49.088;11.886;2023-04-03T20:35:25;4.45;;;2.90;;
27424;SDS011;15244;49.088;11.886;2023-04-03T20:40:44;3.55;;;2.67;;
27424;SDS011;15244;49.088;11.886;2023-04-03T20:46:13;4.70;;;2.17;;
27424;SDS011;15244;49.088;11.886;2023-04-03T20:51:43;2.63;;;2.22;;
27424;SDS011;15244;49.088;11.886;2023-04-03T20:57:12;4.47;;;2.17;;
27424;SDS011;15244;49.088;11.886;2023-04-03T21:02:29;2.35;;;2.13;;
27424;SDS011;15244;49.088;11.886;2023-04-03T21:19:59;3.58;;;1.90;;
27424;SDS011;15244;49.088;11.886;2023-04-03T21:25:16;2.13;;;1.63;;
27424;SDS011;15244;49.088;11.886;2023-04-03T21:30:45;3.22;;;1.60;;
27424;SDS011;15244;49.088;11.886;2023-04-03T21:36:00;1.65;;;1.33;;
27424;SDS011;15244;49.088;11.886;2023-04-03T21:41:29;2.22;;;1.92;;
27424;SDS011;15244;49.088;11.886;2023-04-03T21:46:48;1.85;;;1.70;;
27424;SDS011;15244;49.088;11.886;2023-04-03T21:52:17;4.55;;;2.22;;
27424;SDS011;15244;49.088;11.886;2023-04-03T21:57:32;1.92;;;1.83;;
27424;SDS011;15244;49.088;11.886;2023-04-03T22:03:01;2.97;;;2.03;;
27424;SDS011;15244;49.088;11.886;2023-04-03T22:08:17;3.70;;;2.20;;
27424;SDS011;15244;49.088;11.886;2023-04-03T22:13:49;3.33;;;2.13;;
27424;SDS011;15244;49.088;11.886;2023-04-03T22:19:06;3.08;;;2.13;;
27424;SDS011;15244;49.088;11.886;2023-04-03T22:24:37;6.60;;;2.25;;
27424;SDS011;15244;49.088;11.886;2023-04-03T22:29:52;5.85;;;2.10;;
27424;SDS011;15244;49.088;11.886;2023-04-03T22:35:21;2.65;;;2.22;;
27424;SDS011;15244;49.088;11.886;2023-04-03T22:40:37;5.07;;;2.10;;
27424;SDS011;15244;49.088;11.886;2023-04-03T22:46:06;3.08;;;1.80;;
27424;SDS011;15244;49.088;11.886;2023-04-03T22:51:22;1.92;;;1.70;;
27424;SDS011;15244;49.088;11.886;2023-04-03T22:56:53;3.35;;;2.00;;
27424;SDS011;15244;49.088;11.886;2023-04-03T23:02:08;3.53;;;1.60;;
27424;SDS011;15244;49.088;11.886;2023-04-03T23:07:37;5.30;;;1.80;;
27424;SDS011;15244;49.088;11.886;2023-04-03T23:12:52;2.45;;;1.73;;
27424;SDS011;15244;49.088;11.886;2023-04-03T23:18:21;2.05;;;1.45;;
27424;SDS011;15244;49.088;11.886;2023-04-03T23:23:36;3.97;;;1.40;;
27424;SDS011;15244;49.088;11.886;2023-04-03T23:29:05;1.92;;;1.70;;
27424;SDS011;15244;49.088;11.886;2023-04-03T23:34:20;1.52;;;1.42;;
27424;SDS011;15244;49.088;11.886;2023-04-03T23:39:50;1.50;;;1.40;;
27424;SDS011;15244;49.088;11.886;2023-04-03T23:45:05;2.00;;;1.50;;
27424;SDS011;15244;49.088;11.886;2023-04-03T23:50:35;1.75;;;1.20;;
27424;SDS011;15244;49.088;11.886;2023-04-03T23:55:50;1.98;;;1.70;;
